Time;durP1;ratioP1;P1;durP2;ratioP2;P2;SDS_P1;SDS_P2;PMS_P1;PMS_P2;Temp;Humidity;BMP_temperature;BMP_pressure;BME280_temperature;BME280_humidity;BME280_pressure;Samples;Min_cycle;Max_cycle;Signal;HPM_P1;HPM_P2
2022/01/01 00:01:56;;;;;;;75.90;42.20;;;10.60;99.90;;;;;;4954217;28;20060;-31
2022/01/01 00:04:22;;;;;;;84.80;45.13;;;10.60;99.90;;;;;;4953737;28;20062;-31
2022/01/01 00:06:47;;;;;;;94.77;51.33;;;10.60;99.90;;;;;;4956319;28;20070;-31
2022/01/01 00:09:13;;;;;;;98.47;50.77;;;10.60;99.90;;;;;;4953884;28;20384;-31
2022/01/01 00:11:39;;;;;;;96.70;48.53;;;10.60;99.90;;;;;;4970904;28;20057;-31
2022/01/01 00:14:05;;;;;;;95.07;45.03;;;10.50;99.90;;;;;;4986959;28;20061;-31
2022/01/01 00:16:30;;;;;;;86.40;46.27;;;10.50;99.90;;;;;;4976160;28;20042;-31
2022/01/01 00:18:57;;;;;;;92.50;46.67;;;10.60;99.90;;;;;;4973742;28;20047;-31
2022/01/01 00:21:23;;;;;;;77.37;41.63;;;10.60;99.90;;;;;;4970193;28;20086;-31
2022/01/01 00:23:49;;;;;;;84.23;42.27;;;10.50;99.90;;;;;;4971037;28;20453;-31
2022/01/01 00:26:14;;;;;;;86.27;41.87;;;10.50;99.90;;;;;;4962239;28;20046;-31
2022/01/01 00:28:40;;;;;;;93.97;42.07;;;10.40;99.90;;;;;;4947830;28;20117;-31
2022/01/01 00:31:07;;;;;;;86.37;42.17;;;10.60;99.90;;;;;;4971622;28;20093;-31
2022/01/01 00:33:33;;;;;;;89.90;44.87;;;10.60;99.90;;;;;;4965283;28;20046;-31
2022/01/01 00:35:59;;;;;;;77.27;40.77;;;10.50;99.90;;;;;;4957164;28;20053;-31
2022/01/01 00:38:25;;;;;;;77.03;39.00;;;10.60;99.90;;;;;;4975282;28;20050;-31
2022/01/01 00:40:51;;;;;;;77.37;37.70;;;10.60;99.90;;;;;;4990894;28;20085;-31
2022/01/01 00:43:17;;;;;;;81.57;37.27;;;10.60;99.90;;;;;;4990086;28;20054;-31
2022/01/01 00:45:42;;;;;;;77.37;34.53;;;10.60;99.90;;;;;;4973596;28;20704;-32
2022/01/01 00:48:08;;;;;;;73.40;32.53;;;10.50;99.90;;;;;;4974457;28;20446;-31
2022/01/01 00:50:34;;;;;;;73.43;31.17;;;10.60;99.90;;;;;;4973354;28;20046;-31
2022/01/01 00:53:00;;;;;;;70.90;29.80;;;10.60;99.90;;;;;;4972424;28;20053;-31
2022/01/01 00:55:26;;;;;;;73.07;30.63;;;10.60;99.90;;;;;;4972881;28;20054;-31
2022/01/01 00:57:52;;;;;;;72.80;28.37;;;10.50;99.90;;;;;;4974127;28;20060;-31
2022/01/01 01:00:17;;;;;;;77.17;28.87;;;10.50;99.90;;;;;;4960214;28;20141;-32
2022/01/01 01:02:43;;;;;;;67.70;27.47;;;10.50;99.90;;;;;;4989854;28;20053;-31
2022/01/01 01:05:09;;;;;;;64.13;27.27;;;10.50;99.90;;;;;;4990275;28;20074;-31
2022/01/01 01:07:35;;;;;;;60.90;26.47;;;10.50;99.90;;;;;;4973943;28;20054;-31
2022/01/01 01:10:01;;;;;;;69.57;29.33;;;10.50;99.90;;;;;;4990242;28;20502;-31
2022/01/01 01:12:36;;;;;;;67.20;30.50;;;10.40;99.90;;;;;;4971355;28;20454;-31
2022/01/01 01:15:04;;;;;;;63.67;28.43;;;10.40;99.90;;;;;;4969292;28;20495;-31
2022/01/01 01:17:29;;;;;;;65.13;28.63;;;10.40;99.90;;;;;;4954348;28;20047;-31
2022/01/01 01:19:55;;;;;;;70.80;28.80;;;10.40;99.90;;;;;;4953248;28;20524;-31
2022/01/01 01:22:21;;;;;;;66.90;29.13;;;10.30;99.90;;;;;;4969704;28;20055;-32
2022/01/01 01:24:46;;;;;;;66.00;29.23;;;10.30;99.90;;;;;;4989543;28;20065;-31
2022/01/01 01:27:12;;;;;;;61.93;27.97;;;10.30;99.90;;;;;;4973747;28;20052;-31
2022/01/01 01:29:42;;;;;;;67.00;28.37;;;10.30;99.90;;;;;;4989649;28;20046;-31
2022/01/01 01:32:08;;;;;;;66.47;28.17;;;10.30;99.90;;;;;;4989223;28;20490;-31
2022/01/01 01:34:33;;;;;;;65.13;27.53;;;10.40;99.90;;;;;;4972474;28;20097;-30
2022/01/01 01:36:59;;;;;;;55.87;27.03;;;10.20;99.90;;;;;;4973945;28;20046;-31
2022/01/01 01:39:25;;;;;;;68.87;28.83;;;10.20;99.90;;;;;;4989577;28;20479;-31
2022/01/01 01:41:52;;;;;;;68.43;28.13;;;10.20;99.90;;;;;;4989780;28;20494;-31
2022/01/01 01:44:32;;;;;;;65.53;28.80;;;10.10;99.90;;;;;;4988956;28;20046;-31
2022/01/01 01:47:01;;;;;;;68.87;29.53;;;10.10;99.90;;;;;;4974496;28;20060;-31
2022/01/01 01:49:27;;;;;;;70.20;28.70;;;10.00;99.90;;;;;;4988345;28;20053;-31
2022/01/01 01:51:53;;;;;;;61.67;27.67;;;10.10;99.90;;;;;;4989704;28;20054;-31
2022/01/01 01:54:20;;;;;;;67.80;27.20;;;10.00;99.90;;;;;;4988645;28;20572;-31
2022/01/01 01:56:47;;;;;;;65.83;29.13;;;9.90;99.90;;;;;;4956491;28;20383;-31
2022/01/01 01:59:14;;;;;;;65.30;25.27;;;10.00;99.90;;;;;;4988291;28;20069;-31
2022/01/01 02:01:40;;;;;;;71.10;25.63;;;9.90;99.90;;;;;;4981007;28;20042;-31
2022/01/01 02:04:06;;;;;;;65.90;25.07;;;9.90;99.90;;;;;;4988333;28;20039;-31
2022/01/01 02:06:34;;;;;;;60.20;23.20;;;10.00;99.90;;;;;;4957762;28;20061;-31
2022/01/01 02:09:00;;;;;;;71.30;26.23;;;9.90;99.90;;;;;;4968785;28;20050;-31
2022/01/01 02:11:26;;;;;;;78.17;26.80;;;9.70;99.90;;;;;;4989105;28;20104;-31
2022/01/01 02:18:53;;;;;;;80.50;30.63;;;9.80;99.90;;;;;;4985037;28;20050;-31
2022/01/01 02:21:20;;;;;;;84.30;32.43;;;9.70;99.90;;;;;;4971788;28;20906;-31
2022/01/01 02:23:48;;;;;;;91.27;34.17;;;9.80;99.90;;;;;;4970855;28;20317;-31
2022/01/01 02:26:15;;;;;;;89.53;35.33;;;9.80;99.90;;;;;;4961789;28;20085;-31
2022/01/01 02:28:43;;;;;;;107.03;38.23;;;9.90;99.90;;;;;;4983431;28;20129;-32
2022/01/01 02:31:09;;;;;;;109.03;42.17;;;9.80;99.90;;;;;;4971319;28;20525;-31
2022/01/01 02:33:36;;;;;;;100.40;44.20;;;9.80;99.90;;;;;;4970417;28;20061;-31
2022/01/01 02:36:04;;;;;;;108.40;46.83;;;9.90;99.90;;;;;;4988880;28;20042;-31
2022/01/01 02:38:32;;;;;;;116.67;49.37;;;9.90;99.90;;;;;;4973394;28;20061;-31
2022/01/01 02:40:58;;;;;;;120.13;51.20;;;9.90;99.90;;;;;;4988311;28;20050;-31
2022/01/01 02:43:23;;;;;;;125.40;52.83;;;9.90;99.90;;;;;;4985672;28;20096;-31
2022/01/01 02:45:52;;;;;;;120.50;53.33;;;9.90;99.90;;;;;;4988889;28;20053;-31
2022/01/01 02:48:19;;;;;;;114.57;51.73;;;9.90;99.90;;;;;;4954270;28;20051;-31
2022/01/01 02:50:44;;;;;;;116.13;51.60;;;9.90;99.90;;;;;;4988535;28;20069;-31
2022/01/01 02:53:16;;;;;;;121.90;51.17;;;10.00;99.90;;;;;;4970243;28;20046;-31
2022/01/01 02:55:44;;;;;;;109.83;49.37;;;10.00;99.90;;;;;;4988314;28;20051;-32
2022/01/01 02:58:11;;;;;;;114.33;48.63;;;10.00;99.90;;;;;;4972039;28;20105;-31
2022/01/01 03:00:37;;;;;;;109.80;46.83;;;10.00;99.90;;;;;;4988234;28;20050;-31
2022/01/01 03:03:03;;;;;;;114.60;44.47;;;10.00;99.90;;;;;;4987788;28;20054;-31
2022/01/01 03:05:30;;;;;;;101.53;41.40;;;10.00;99.90;;;;;;4988554;28;20050;-31
2022/01/01 03:07:56;;;;;;;103.63;39.23;;;10.00;99.90;;;;;;4954812;28;20058;-31
2022/01/01 03:10:22;;;;;;;110.83;38.67;;;10.00;99.90;;;;;;4988277;28;20046;-31
2022/01/01 03:12:48;;;;;;;97.43;38.50;;;10.00;99.90;;;;;;4987835;28;20105;-31
2022/01/01 03:15:14;;;;;;;100.50;36.83;;;10.00;99.90;;;;;;4954767;28;20039;-31
2022/01/01 03:17:39;;;;;;;104.23;39.20;;;10.10;99.90;;;;;;4954557;28;20675;-31
2022/01/01 03:20:06;;;;;;;100.40;39.53;;;10.00;99.90;;;;;;4954664;28;20065;-31
2022/01/01 03:22:32;;;;;;;94.67;36.40;;;10.10;99.90;;;;;;4987551;28;20120;-31
2022/01/01 03:24:57;;;;;;;96.47;38.33;;;10.00;99.90;;;;;;4988996;28;20046;-31
2022/01/01 03:27:23;;;;;;;106.70;41.40;;;10.00;99.90;;;;;;4971980;28;20117;-32
2022/01/01 03:29:49;;;;;;;93.33;39.93;;;10.10;99.90;;;;;;4988187;28;20137;-31
2022/01/01 03:32:15;;;;;;;101.33;39.77;;;10.10;99.90;;;;;;4987601;28;20100;-31
2022/01/01 03:34:41;;;;;;;99.73;39.17;;;10.10;99.90;;;;;;4971015;28;20055;-31
2022/01/01 03:37:08;;;;;;;97.43;40.93;;;10.10;99.90;;;;;;4951798;28;20422;-31
2022/01/01 03:39:33;;;;;;;95.53;39.60;;;10.10;99.90;;;;;;4967435;28;20454;-31
2022/01/01 03:41:59;;;;;;;104.27;40.63;;;10.10;99.90;;;;;;4968922;28;20046;-31
2022/01/01 03:44:25;;;;;;;104.27;39.83;;;10.10;99.90;;;;;;4986700;28;20058;-31
2022/01/01 03:46:52;;;;;;;104.83;39.23;;;10.10;99.90;;;;;;4972797;28;20113;-31
2022/01/01 03:49:17;;;;;;;99.73;38.00;;;10.10;99.90;;;;;;4969843;28;20079;-31
2022/01/01 03:51:43;;;;;;;99.53;38.70;;;10.10;99.90;;;;;;4970579;28;20046;-31
2022/01/01 03:54:11;;;;;;;98.03;37.00;;;10.10;99.90;;;;;;4987389;28;20441;-31
2022/01/01 03:56:38;;;;;;;91.77;36.57;;;10.10;99.90;;;;;;4956597;28;20490;-31
2022/01/01 03:59:04;;;;;;;105.97;35.90;;;10.20;99.90;;;;;;4985534;28;20170;-31
2022/01/01 04:01:29;;;;;;;93.17;36.03;;;10.10;99.90;;;;;;4979861;28;20518;-31
2022/01/01 04:03:55;;;;;;;94.93;34.63;;;10.20;99.90;;;;;;4990460;28;20129;-31
2022/01/01 04:06:21;;;;;;;85.27;34.70;;;10.20;99.90;;;;;;4980680;28;20521;-31
2022/01/01 04:08:46;;;;;;;99.87;36.53;;;10.10;99.90;;;;;;4952612;28;20042;-31
2022/01/01 04:11:12;;;;;;;95.90;35.57;;;10.10;99.90;;;;;;4991834;28;20046;-31
2022/01/01 04:13:38;;;;;;;86.47;34.50;;;10.10;99.90;;;;;;4990523;28;20050;-30
2022/01/01 04:16:03;;;;;;;89.23;35.27;;;10.10;99.90;;;;;;4989694;28;20050;-31
2022/01/01 04:18:38;;;;;;;87.80;35.40;;;10.10;99.90;;;;;;4973436;28;20050;-31
2022/01/01 04:21:08;;;;;;;87.97;33.40;;;10.10;99.90;;;;;;4991111;28;20065;-31
2022/01/01 04:23:35;;;;;;;92.73;33.90;;;10.10;99.90;;;;;;4990743;28;20045;-31
2022/01/01 04:26:00;;;;;;;87.97;33.93;;;10.10;99.90;;;;;;4973587;28;20141;-31
2022/01/01 04:28:26;;;;;;;87.47;32.87;;;10.10;99.90;;;;;;4974610;28;20153;-31
2022/01/01 04:30:52;;;;;;;93.00;35.87;;;10.10;99.90;;;;;;4991211;28;20053;-31
2022/01/01 04:33:17;;;;;;;89.93;37.23;;;10.10;99.90;;;;;;4991017;28;20061;-31
2022/01/01 04:35:43;;;;;;;99.30;37.33;;;10.20;99.90;;;;;;4990863;28;20046;-31
2022/01/01 04:38:21;;;;;;;102.20;39.13;;;10.10;99.90;;;;;;4975516;28;20112;-31
2022/01/01 04:40:46;;;;;;;91.50;39.03;;;10.10;99.90;;;;;;4991255;28;20042;-31
2022/01/01 04:43:12;;;;;;;100.40;39.17;;;10.10;99.90;;;;;;4972599;28;20186;-31
2022/01/01 04:45:38;;;;;;;95.10;39.77;;;10.10;99.90;;;;;;4990696;28;20108;-31
2022/01/01 04:48:04;;;;;;;94.50;41.10;;;10.10;99.90;;;;;;4974666;28;20051;-31
2022/01/01 04:50:30;;;;;;;91.67;39.77;;;10.10;99.90;;;;;;4974370;28;20046;-31
2022/01/01 04:52:56;;;;;;;91.57;38.67;;;10.00;99.90;;;;;;4971171;28;20070;-31
2022/01/01 04:55:23;;;;;;;101.27;39.73;;;10.00;99.90;;;;;;4954039;28;20089;-31
2022/01/01 04:57:49;;;;;;;89.50;39.47;;;10.10;99.90;;;;;;4954896;28;20097;-31
2022/01/01 05:00:15;;;;;;;96.67;40.87;;;10.10;99.90;;;;;;4986445;28;20116;-31
2022/01/01 05:02:40;;;;;;;95.20;41.07;;;10.10;99.90;;;;;;4972788;28;20054;-31
2022/01/01 05:05:07;;;;;;;102.17;42.53;;;10.10;99.90;;;;;;4960987;28;20042;-31
2022/01/01 05:07:32;;;;;;;92.37;41.97;;;10.10;99.90;;;;;;4948500;28;20046;-31
2022/01/01 05:09:59;;;;;;;95.30;41.40;;;10.10;99.90;;;;;;4990466;28;20040;-31
2022/01/01 05:12:25;;;;;;;97.63;43.43;;;10.10;99.90;;;;;;4981769;28;20055;-31
2022/01/01 05:14:51;;;;;;;94.47;45.03;;;10.10;99.90;;;;;;4978622;28;20252;-31
2022/01/01 05:17:18;;;;;;;86.10;42.43;;;10.10;99.90;;;;;;4959212;28;20147;-31
2022/01/01 05:19:43;;;;;;;95.23;44.80;;;10.10;99.90;;;;;;4976106;28;20050;-31
2022/01/01 05:22:09;;;;;;;95.50;45.90;;;10.20;99.90;;;;;;4970015;28;20046;-31
2022/01/01 05:24:35;;;;;;;98.30;48.10;;;10.20;99.90;;;;;;4988884;28;20042;-31
2022/01/01 05:27:01;;;;;;;104.90;50.03;;;10.20;99.90;;;;;;4957302;28;20038;-31
2022/01/01 05:29:26;;;;;;;105.63;51.37;;;10.20;99.90;;;;;;4988792;28;20438;-31
2022/01/01 05:31:52;;;;;;;110.97;54.13;;;10.20;99.90;;;;;;4972434;28;20478;-31
2022/01/01 05:34:18;;;;;;;112.23;55.13;;;10.20;99.90;;;;;;4989353;28;20058;-31
2022/01/01 05:36:44;;;;;;;106.67;54.27;;;10.20;99.90;;;;;;4974125;28;20081;-31
2022/01/01 05:39:10;;;;;;;112.40;53.63;;;10.20;99.90;;;;;;4989919;28;20046;-31
2022/01/01 05:41:36;;;;;;;102.77;49.50;;;10.30;99.90;;;;;;4989532;28;20537;-31
2022/01/01 05:44:02;;;;;;;100.33;48.20;;;10.20;99.90;;;;;;4956758;28;20054;-32
2022/01/01 05:46:29;;;;;;;98.03;46.80;;;10.20;99.90;;;;;;4957263;28;20442;-31
2022/01/01 05:48:55;;;;;;;94.53;45.50;;;10.20;99.90;;;;;;4950570;28;20531;-31
2022/01/01 05:51:21;;;;;;;96.80;44.37;;;10.20;99.90;;;;;;4970127;28;20102;-31
2022/01/01 05:53:47;;;;;;;88.67;39.77;;;10.10;99.90;;;;;;4969268;28;20069;-31
2022/01/01 05:56:12;;;;;;;94.47;39.47;;;10.10;99.90;;;;;;4943335;28;20051;-31
2022/01/01 05:58:38;;;;;;;82.53;37.97;;;10.10;99.90;;;;;;4965423;28;20051;-31
2022/01/01 06:01:04;;;;;;;86.03;38.47;;;10.10;99.90;;;;;;4973994;28;20048;-31
2022/01/01 06:03:31;;;;;;;98.40;38.73;;;10.10;99.90;;;;;;4989112;28;20081;-31
2022/01/01 06:05:57;;;;;;;88.60;37.60;;;10.10;99.90;;;;;;4989038;28;20581;-31
2022/01/01 06:08:24;;;;;;;102.97;40.57;;;10.00;99.90;;;;;;4972711;28;20061;-31
2022/01/01 06:10:50;;;;;;;105.07;37.47;;;10.10;99.90;;;;;;4982942;28;20129;-31
2022/01/01 06:13:15;;;;;;;91.40;38.53;;;10.10;99.90;;;;;;4988672;28;20141;-31
2022/01/01 06:15:43;;;;;;;106.43;41.70;;;10.10;99.90;;;;;;4988984;28;20038;-31
2022/01/01 06:18:08;;;;;;;103.10;38.70;;;10.00;99.90;;;;;;4972850;28;20053;-31
2022/01/01 06:20:34;;;;;;;96.77;39.50;;;10.10;99.90;;;;;;4989237;28;20398;-31
2022/01/01 06:23:04;;;;;;;94.57;39.10;;;10.10;99.90;;;;;;4988069;28;20041;-31
2022/01/01 06:25:36;;;;;;;114.00;41.13;;;10.10;99.90;;;;;;4971360;28;20062;-31
2022/01/01 06:28:03;;;;;;;115.43;41.77;;;10.10;99.90;;;;;;4953406;28;20054;-31
2022/01/01 06:30:33;;;;;;;104.30;42.80;;;10.10;99.90;;;;;;4979153;28;20518;-32
2022/01/01 06:33:00;;;;;;;86.87;32.77;;;10.10;99.90;;;;;;4988258;28;20125;-31
2022/01/01 06:35:26;;;;;;;119.83;40.20;;;10.20;99.90;;;;;;4989224;28;20049;-31
2022/01/01 06:37:52;;;;;;;110.57;40.33;;;10.20;99.90;;;;;;4952446;28;20055;-31
2022/01/01 06:40:18;;;;;;;95.23;38.33;;;10.20;99.90;;;;;;4969423;28;20117;-31
2022/01/01 06:42:43;;;;;;;107.17;37.70;;;10.20;99.90;;;;;;4967049;28;20069;-32
2022/01/01 06:45:09;;;;;;;88.77;35.90;;;10.20;99.90;;;;;;4969654;28;20093;-31
2022/01/01 06:47:35;;;;;;;91.63;34.80;;;10.20;99.90;;;;;;4953045;28;20443;-31
2022/01/01 06:50:00;;;;;;;94.17;36.13;;;10.20;99.90;;;;;;4968120;28;20401;-31
2022/01/01 06:52:26;;;;;;;88.80;34.43;;;10.30;99.90;;;;;;4967226;28;20042;-31
2022/01/01 06:54:52;;;;;;;97.47;32.87;;;10.20;99.90;;;;;;4969302;28;20078;-31
2022/01/01 06:57:17;;;;;;;88.13;32.83;;;10.30;99.90;;;;;;4953574;28;20142;-31
2022/01/01 06:59:43;;;;;;;81.97;31.97;;;10.30;99.90;;;;;;4970744;28;20430;-31
2022/01/01 07:02:08;;;;;;;91.47;32.50;;;10.30;99.90;;;;;;4987530;28;20449;-31
2022/01/01 07:04:34;;;;;;;87.23;32.23;;;10.30;99.90;;;;;;4988708;28;20425;-31
2022/01/01 07:07:00;;;;;;;88.13;32.13;;;10.40;99.90;;;;;;4972989;28;20566;-31
2022/01/01 07:09:25;;;;;;;93.43;31.03;;;10.30;99.90;;;;;;4987555;28;20137;-31
2022/01/01 07:11:51;;;;;;;85.47;32.23;;;10.30;99.90;;;;;;4988218;28;20038;-31
2022/01/01 07:14:21;;;;;;;81.37;30.17;;;10.40;99.90;;;;;;4987811;28;20082;-31
2022/01/01 07:16:46;;;;;;;88.23;31.33;;;10.40;99.90;;;;;;4973054;28;20042;-31
2022/01/01 07:19:12;;;;;;;86.43;32.60;;;10.40;99.90;;;;;;4987507;28;20521;-31
2022/01/01 07:21:38;;;;;;;89.67;32.97;;;10.40;99.90;;;;;;4988644;28;20093;-31
2022/01/01 07:24:03;;;;;;;90.43;32.90;;;10.40;99.90;;;;;;4975942;28;20054;-31
2022/01/01 07:26:29;;;;;;;100.80;32.93;;;10.40;99.90;;;;;;4976079;28;20089;-31
2022/01/01 07:28:55;;;;;;;78.37;31.80;;;10.40;99.90;;;;;;4986173;28;20077;-30
2022/01/01 07:31:20;;;;;;;81.77;29.53;;;10.40;99.90;;;;;;4988052;28;20043;-32
2022/01/01 07:33:46;;;;;;;84.93;30.80;;;10.40;99.90;;;;;;4987873;28;20050;-31
2022/01/01 07:36:13;;;;;;;83.13;31.53;;;10.40;99.90;;;;;;4981644;28;20070;-31
2022/01/01 07:38:39;;;;;;;86.90;30.90;;;10.50;99.90;;;;;;4985677;28;20528;-31
2022/01/01 07:41:05;;;;;;;73.57;29.90;;;10.60;99.90;;;;;;4992266;28;20054;-31
2022/01/01 07:43:31;;;;;;;72.67;30.43;;;10.50;99.90;;;;;;4990798;28;20426;-31
2022/01/01 07:45:57;;;;;;;83.27;31.23;;;10.50;99.90;;;;;;4991994;28;20055;-31
2022/01/01 07:48:23;;;;;;;78.13;30.97;;;10.50;99.90;;;;;;4942115;28;20045;-31
2022/01/01 07:50:49;;;;;;;81.70;29.97;;;10.60;99.90;;;;;;4963339;28;20537;-31
2022/01/01 07:53:14;;;;;;;81.57;31.00;;;10.50;99.90;;;;;;4972775;28;20108;-31
2022/01/01 07:55:40;;;;;;;77.93;31.60;;;10.50;99.90;;;;;;4981802;28;20133;-31
2022/01/01 07:58:08;;;;;;;89.20;33.13;;;10.60;99.90;;;;;;4971724;28;20298;-31
2022/01/01 08:00:34;;;;;;;88.33;33.47;;;10.60;99.90;;;;;;4957157;28;20126;-31
2022/01/01 08:03:00;;;;;;;89.33;34.07;;;10.60;99.90;;;;;;4972458;28;20137;-31
2022/01/01 08:05:25;;;;;;;102.30;34.63;;;10.60;99.90;;;;;;4955343;28;20089;-31
2022/01/01 08:07:51;;;;;;;86.53;33.50;;;10.60;99.90;;;;;;4963542;28;20046;-31
2022/01/01 08:10:20;;;;;;;75.60;33.33;;;10.60;99.90;;;;;;4982455;28;20055;-31
2022/01/01 08:12:46;;;;;;;84.30;33.43;;;10.70;99.90;;;;;;4970721;28;20055;-31
2022/01/01 08:15:11;;;;;;;88.23;34.30;;;10.70;99.90;;;;;;4976949;28;20125;-31
2022/01/01 08:17:37;;;;;;;82.27;33.33;;;10.70;99.90;;;;;;4958065;28;20141;-32
2022/01/01 08:20:04;;;;;;;96.97;35.90;;;10.80;99.90;;;;;;4974052;28;20126;-31
2022/01/01 08:22:30;;;;;;;80.17;34.57;;;10.80;99.90;;;;;;4953049;28;20054;-31
2022/01/01 08:24:55;;;;;;;81.03;33.30;;;10.80;99.90;;;;;;4971399;28;20050;-31
2022/01/01 08:27:21;;;;;;;88.90;34.10;;;10.80;99.90;;;;;;4941012;28;20043;-32
2022/01/01 08:29:47;;;;;;;83.37;33.63;;;10.80;99.90;;;;;;4955281;28;20494;-31
2022/01/01 08:32:13;;;;;;;87.40;35.77;;;10.90;99.90;;;;;;4970188;28;20508;-31
2022/01/01 08:34:39;;;;;;;87.67;35.87;;;10.90;99.90;;;;;;4971219;28;20050;-31
2022/01/01 08:37:05;;;;;;;78.70;35.23;;;10.90;99.90;;;;;;4959344;28;20042;-31
2022/01/01 08:39:30;;;;;;;95.47;37.57;;;10.90;99.90;;;;;;4973340;28;20078;-31
2022/01/01 08:41:56;;;;;;;84.23;36.53;;;11.00;99.90;;;;;;4970774;28;20039;-32
2022/01/01 08:44:22;;;;;;;85.10;37.60;;;11.00;99.90;;;;;;4969714;28;20058;-31
2022/01/01 08:46:48;;;;;;;85.53;35.10;;;11.00;99.90;;;;;;4957293;28;20054;-31
2022/01/01 08:49:14;;;;;;;86.87;37.87;;;11.00;99.90;;;;;;4972742;28;20043;-31
2022/01/01 08:51:44;;;;;;;89.93;36.67;;;11.10;99.90;;;;;;4977907;28;20076;-31
2022/01/01 08:54:12;;;;;;;83.70;37.58;;;11.10;99.90;;;;;;4973480;28;20038;-31
2022/01/01 08:56:39;;;;;;;87.77;39.40;;;11.10;99.90;;;;;;4958098;28;20073;-31
2022/01/01 08:59:05;;;;;;;87.50;39.03;;;11.10;99.90;;;;;;4953960;28;20089;-32
2022/01/01 09:01:30;;;;;;;79.25;37.17;;;11.20;99.90;;;;;;4974581;28;20038;-31
2022/01/01 09:03:58;;;;;;;81.43;38.60;;;11.20;99.90;;;;;;4974419;28;20406;-31
2022/01/01 09:06:23;;;;;;;82.80;36.08;;;11.20;99.90;;;;;;4959716;28;20149;-31
2022/01/01 09:08:49;;;;;;;75.43;35.38;;;11.30;99.90;;;;;;4967854;28;20614;-31
2022/01/01 09:11:15;;;;;;;79.50;35.33;;;11.30;99.90;;;;;;4971836;28;20053;-32
2022/01/01 09:13:43;;;;;;;76.07;33.70;;;11.30;99.90;;;;;;4951876;28;20122;-32
2022/01/01 09:16:14;;;;;;;75.85;34.47;;;11.40;99.90;;;;;;4963503;28;20448;-31
2022/01/01 09:18:41;;;;;;;67.75;33.42;;;11.40;99.90;;;;;;4946596;28;20047;-31
2022/01/01 09:21:08;;;;;;;76.57;34.00;;;11.40;99.90;;;;;;4970233;28;20316;-31
2022/01/01 09:23:34;;;;;;;62.75;32.95;;;11.40;99.90;;;;;;4970726;28;20819;-31
2022/01/01 09:26:01;;;;;;;53.67;31.55;;;11.50;99.90;;;;;;4970335;28;20154;-31
2022/01/01 09:28:28;;;;;;;64.07;32.03;;;11.50;99.90;;;;;;4937485;28;20045;-31
2022/01/01 09:30:55;;;;;;;55.08;31.00;;;11.60;99.90;;;;;;4972853;28;20162;-32
2022/01/01 09:33:20;;;;;;;53.60;29.37;;;11.60;99.90;;;;;;4967683;28;20055;-31
2022/01/01 09:35:46;;;;;;;58.83;30.63;;;11.60;99.90;;;;;;4953198;28;20094;-31
2022/01/01 09:38:12;;;;;;;54.65;29.55;;;11.70;99.90;;;;;;4955787;28;20046;-32
2022/01/01 09:40:37;;;;;;;52.97;28.48;;;11.60;99.90;;;;;;4973060;28;20077;-31
2022/01/01 09:43:05;;;;;;;52.92;28.20;;;11.70;99.90;;;;;;4971590;28;20054;-31
2022/01/01 09:45:32;;;;;;;54.22;29.20;;;11.70;99.90;;;;;;4952094;28;20478;-31
2022/01/01 09:48:00;;;;;;;54.03;29.15;;;11.80;99.90;;;;;;4954405;28;20104;-31
2022/01/01 09:50:26;;;;;;;54.13;27.35;;;11.80;99.90;;;;;;4972263;28;20126;-31
2022/01/01 09:52:52;;;;;;;54.63;28.20;;;11.80;99.90;;;;;;4968944;28;20046;-32
2022/01/01 09:55:18;;;;;;;46.00;25.77;;;11.80;99.90;;;;;;4969725;28;20093;-31
2022/01/01 09:57:43;;;;;;;49.10;25.02;;;11.80;99.90;;;;;;4953951;28;20050;-31
2022/01/01 10:00:10;;;;;;;50.90;25.67;;;11.80;99.90;;;;;;4974803;28;20370;-31
2022/01/01 10:02:35;;;;;;;50.72;24.60;;;11.80;99.90;;;;;;4970882;28;20051;-32
2022/01/01 10:05:05;;;;;;;57.58;25.52;;;11.90;99.90;;;;;;4971436;28;20034;-31
2022/01/01 10:07:31;;;;;;;53.30;25.45;;;11.90;99.90;;;;;;4955792;28;20066;-31
2022/01/01 10:09:58;;;;;;;47.88;23.70;;;11.80;99.90;;;;;;4970227;28;20050;-31
2022/01/01 10:12:43;;;;;;;47.47;24.63;;;11.90;99.90;;;;;;4950981;28;20134;-31
2022/01/01 10:15:09;;;;;;;49.75;24.20;;;11.90;99.90;;;;;;4975392;28;20522;-31
2022/01/01 10:17:34;;;;;;;43.20;22.23;;;11.90;99.90;;;;;;4956793;28;20050;-31
2022/01/01 10:20:03;;;;;;;46.50;23.17;;;11.90;99.90;;;;;;4951645;28;20129;-31
2022/01/01 10:22:29;;;;;;;39.97;22.63;;;11.90;99.90;;;;;;4969276;28;20439;-31
2022/01/01 10:28:02;;;;;;;41.33;21.25;;;11.90;99.90;;;;;;4955251;28;20088;-31
2022/01/01 10:30:34;;;;;;;37.65;20.23;;;11.90;99.90;;;;;;4988639;28;20074;-31
2022/01/01 10:33:17;;;;;;;45.17;19.38;;;11.90;99.90;;;;;;4988122;28;20061;-31
2022/01/01 10:35:48;;;;;;;34.55;19.33;;;11.90;99.90;;;;;;4971007;28;20130;-31
2022/01/01 10:38:27;;;;;;;37.15;19.02;;;11.90;99.90;;;;;;4955558;28;20054;-32
2022/01/01 10:41:07;;;;;;;37.55;17.35;;;12.00;99.90;;;;;;4986389;28;20164;-31
2022/01/01 10:43:42;;;;;;;35.90;18.73;;;12.00;99.90;;;;;;4974145;28;20095;-31
2022/01/01 10:46:19;;;;;;;35.58;16.98;;;12.10;99.90;;;;;;4980433;28;20061;-32
2022/01/01 10:48:57;;;;;;;31.83;16.23;;;12.00;99.90;;;;;;4980390;28;20050;-32
2022/01/01 10:51:24;;;;;;;38.08;17.13;;;12.00;99.90;;;;;;4986149;28;20421;-31
2022/01/01 10:54:02;;;;;;;35.38;16.92;;;12.00;99.90;;;;;;4985117;28;20054;-32
2022/01/01 10:56:37;;;;;;;31.17;16.17;;;12.00;99.90;;;;;;4973229;28;20054;-32
2022/01/01 10:59:04;;;;;;;32.55;16.50;;;12.00;99.90;;;;;;4965661;28;20073;-31
2022/01/01 11:01:33;;;;;;;35.03;17.13;;;12.00;99.90;;;;;;4954120;28;20049;-31
2022/01/01 11:04:01;;;;;;;33.63;16.38;;;12.00;99.90;;;;;;4982131;28;20506;-32
2022/01/01 11:06:33;;;;;;;35.83;16.02;;;12.10;99.90;;;;;;4945799;28;20047;-31
2022/01/01 11:09:01;;;;;;;32.10;16.58;;;12.10;99.90;;;;;;4965520;28;20138;-31
2022/01/01 11:11:27;;;;;;;33.67;15.80;;;12.10;99.90;;;;;;4987433;28;20460;-31
2022/01/01 11:13:53;;;;;;;30.13;15.30;;;12.10;99.90;;;;;;4988842;28;20050;-32
2022/01/01 11:16:19;;;;;;;29.08;16.10;;;12.10;99.90;;;;;;4979343;28;20042;-31
2022/01/01 11:18:46;;;;;;;28.63;15.93;;;12.10;99.90;;;;;;4984361;28;20050;-31
2022/01/01 11:21:13;;;;;;;25.40;14.80;;;12.20;99.90;;;;;;4989867;28;20372;-32
2022/01/01 11:23:40;;;;;;;29.38;14.95;;;12.10;99.90;;;;;;4988891;28;20145;-31
2022/01/01 11:26:07;;;;;;;26.63;14.63;;;12.10;99.90;;;;;;4968617;28;20069;-32
2022/01/01 11:28:33;;;;;;;28.15;15.05;;;12.20;99.90;;;;;;4961926;28;20388;-32
2022/01/01 11:31:03;;;;;;;27.63;14.45;;;12.20;99.90;;;;;;4971840;28;20093;-31
2022/01/01 11:33:40;;;;;;;29.02;13.98;;;12.20;99.90;;;;;;4977830;28;20304;-31
2022/01/01 11:36:07;;;;;;;29.98;13.18;;;12.20;99.90;;;;;;4949284;28;20089;-31
2022/01/01 11:38:35;;;;;;;25.35;12.68;;;12.20;99.90;;;;;;4960046;28;20074;-31
2022/01/01 11:41:09;;;;;;;26.38;12.68;;;12.20;99.90;;;;;;4969381;28;20497;-32
2022/01/01 11:43:45;;;;;;;25.52;12.30;;;12.30;99.90;;;;;;4968765;28;20047;-32
2022/01/01 11:46:11;;;;;;;25.88;12.57;;;12.30;99.90;;;;;;4944549;28;20063;-32
2022/01/01 11:48:41;;;;;;;25.00;12.40;;;12.40;99.90;;;;;;4945229;28;20059;-31
2022/01/01 11:51:46;;;;;;;24.75;12.02;;;12.30;99.90;;;;;;4969349;28;20133;-31
2022/01/01 11:54:14;;;;;;;22.73;11.75;;;12.30;99.90;;;;;;4981464;28;20058;-31
2022/01/01 11:56:46;;;;;;;20.88;11.32;;;12.40;99.90;;;;;;4975076;28;20042;-31
2022/01/01 11:59:26;;;;;;;23.88;10.32;;;12.30;99.90;;;;;;4987767;28;20494;-31
2022/01/01 12:01:54;;;;;;;22.17;10.73;;;12.30;99.90;;;;;;4960046;28;20264;-32
2022/01/01 12:04:41;;;;;;;21.83;11.00;;;12.40;99.90;;;;;;4969107;28;20276;-31
2022/01/01 12:07:11;;;;;;;20.90;11.13;;;12.40;99.90;;;;;;4965111;28;20560;-31
2022/01/01 12:09:55;;;;;;;22.08;11.93;;;12.40;99.90;;;;;;4988245;28;20073;-32
2022/01/01 12:12:58;;;;;;;27.60;12.05;;;12.40;99.90;;;;;;4988347;28;20050;-31
2022/01/01 12:15:24;;;;;;;23.95;10.80;;;12.40;99.90;;;;;;4986978;28;20054;-31
2022/01/01 12:17:53;;;;;;;24.30;10.65;;;12.40;99.90;;;;;;4972614;28;20100;-31
2022/01/01 12:20:21;;;;;;;23.77;10.32;;;12.40;99.90;;;;;;4986955;28;20050;-31
2022/01/01 12:22:48;;;;;;;24.80;10.18;;;12.40;99.90;;;;;;4987650;28;20149;-32
2022/01/01 12:25:22;;;;;;;19.95;9.32;;;12.40;99.90;;;;;;4988413;28;20046;-32
2022/01/01 12:27:51;;;;;;;25.15;9.90;;;12.50;99.90;;;;;;4972666;28;20456;-32
2022/01/01 12:30:33;;;;;;;21.85;9.45;;;12.40;99.90;;;;;;4988582;28;20136;-32
2022/01/01 12:33:00;;;;;;;20.20;8.77;;;12.40;99.90;;;;;;4970239;28;20057;-32
2022/01/01 12:35:46;;;;;;;20.58;8.63;;;12.40;99.90;;;;;;4988271;28;20054;-31